Date,TemperatureHighF,TemperatureAvgF,TemperatureLowF,DewpointHighF,DewpointAvgF,DewpointLowF,HumidityHigh,HumidityAvg,HumidityLow,PressureMaxIn,PressureMinIn,WindSpeedMaxMPH,WindSpeedAvgMPH,GustSpeedMaxMPH,PrecipitationSumIn
2013-1-1,33,23,14,13,7,2,66,51,33,30.24,30.06,12,4,12,0.00
2013-1-2,29,23,16,17,11,5,72,62,50,30.24,30.15,10,4,12,0.00
2013-1-3,30,24,18,22,14,4,73,64,54,30.24,30.06,14,6,14,0.00
2013-1-4,39,30,21,20,17,14,77,60,42,30.24,30.03,26,9,26,0.00
2013-1-5,39,28,16,32,20,13,96,74,49,30.33,30.06,16,6,16,0.00
2013-1-6,36,34,31,32,27,0,97,76,60,30.33,29.94,18,7,18,0.05
2013-1-7,38,32,27,23,18,15,76,58,42,30.39,30.15,27,9,27,0.00
2013-1-8,43,32,25,23,19,16,73,61,42,30.27,30.18,17,7,17,0.00
2013-1-9,47,38,29,30,24,20,77,58,38,30.47,30.03,23,9,26,0.00
2013-1-10,44,33,23,30,23,18,89,68,43,30.62,30.21,14,5,16,0.08
2013-1-11,126,44,36,50,41,29,98,89,70,30.21,29.76,172,10,172,0.50
2013-1-12,61,51,44,45,41,27,89,69,44,29.94,29.82,17,6,17,0.00
2013-1-13,44,36,27,37,34,20,98,92,52,30.09,29.85,11,4,11,0.54
2013-1-14,37,23,11,20,11,6,82,63,34,30.50,30.09,13,4,13,0.00
2013-1-15,44,21,8,22,10,4,84,66,31,30.47,30.21,6,1,7,0.00
2013-1-16,37,26,12,27,15,8,93,65,39,30.21,29.82,20,7,22,0.00
2013-1-17,40,28,16,26,14,0,78,57,37,30.39,30.00,20,5,20,0.00
2013-1-18,36,24,7,18,10,-3,80,55,39,30.50,29.94,26,9,27,0.00
2013-1-19,44,40,36,32,25,18,68,56,48,29.97,29.56,24,12,26,0.00
2013-1-20,43,21,12,28,4,-4,71,48,39,30.27,29.56,26,7,30,0.00
2013-1-21,22,12,3,8,-3,-13,74,51,37,30.24,29.97,14,5,20,0.00
2013-1-22,14,5,-2,-3,-12,-17,47,45,41,30.36,30.21,15,4,17,0.00
2013-1-23,19,10,1,9,-4,-17,81,53,41,30.36,30.12,15,6,15,0.00
2013-1-24,24,10,-1,9,-5,-19,80,54,32,30.65,30.18,10,3,12,0.00
2013-1-25,26,17,10,13,3,-12,80,55,35,30.56,30.00,16,6,16,0.00
2013-1-26,40,22,10,15,10,0,82,63,32,30.50,30.06,7,3,9,0.00
2013-1-27,31,23,12,26,12,3,88,63,41,30.53,30.12,20,8,21,0.00
2013-1-28,44,36,30,43,35,26,98,95,85,30.18,29.82,13,6,14,0.33
2013-1-29,58,46,33,55,45,32,98,96,83,30.06,29.44,24,9,27,0.95
2013-1-30,58,46,30,55,44,23,98,94,75,29.44,29.12,20,7,27,0.66
2013-1-31,30,22,15,24,11,5,85,64,46,29.91,29.26,23,7,25,0.58
2013-2-1,22,15,10,9,4,-5,80,61,43,30.27,29.91,20,7,21,0.00
2013-2-2,27,14,0,14,3,-12,79,60,51,30.24,30.00,17,6,18,0.00
2013-2-3,25,12,-1,10,0,-12,65,57,45,30.12,29.85,14,3,14,0.00
2013-2-4,33,19,10,15,8,0,79,64,43,30.09,29.88,7,3,8,0.00
2013-2-5,28,22,2,25,14,-3,91,71,46,30.03,29.76,18,7,18,0.00
2013-2-6,48,26,9,18,11,2,79,54,29,30.30,30.03,12,3,13,0.00
2013-2-7,38,31,25,27,18,11,98,59,45,30.33,29.94,16,7,16,0.00
2013-2-8,34,28,24,28,20,9,98,77,43,30.27,29.88,25,11,26,0.00
2013-2-9,54,29,-2,22,10,-7,81,49,27,30.53,30.30,12,4,13,0.00
2013-2-10,42,31,17,36,20,12,88,66,39,30.33,29.68,28,10,28,0.21
2013-2-11,44,37,32,42,28,20,98,70,50,29.88,29.53,33,13,33,0.09
2013-2-12,32,30,27,23,19,16,70,64,55,30.03,29.88,15,5,18,0.00
2013-2-13,42,31,27,26,20,17,83,65,45,30.00,29.71,11,4,12,0.00
2013-2-14,43,34,30,32,28,20,87,76,58,29.88,29.65,23,9,26,0.00
2013-2-15,32,26,19,21,12,7,70,54,40,30.18,29.88,13,5,16,0.00
2013-2-16,32,21,15,16,9,1,79,61,39,30.15,30.03,14,4,14,0.00
2013-2-17,28,17,8,6,1,-2,66,50,33,30.27,30.15,16,4,16,0.00
2013-2-18,46,32,16,31,14,1,62,48,38,30.27,29.56,29,13,29,0.00
2013-2-19,46,29,18,39,20,6,88,68,52,29.97,29.38,29,12,404,0.12
2013-2-20,24,20,15,12,6,3,66,55,43,30.36,29.94,18,7,404,0.00
2013-2-21,30,21,18,11,8,4,68,55,41,30.50,30.33,18,7,20,0.00
2013-2-23,27,26,24,19,17,16,73,69,64,30.00,29.91,12,6,13,0.00
2013-2-24,47,29,18,24,19,11,96,69,36,30.21,29.94,9,4,10,0.04
2013-2-25,59,34,23,28,20,15,81,59,28,30.30,30.15,8,2,8,0.00
2013-2-26,36,31,24,33,24,17,98,76,53,30.21,29.59,25,10,25,0.12
2013-2-27,46,36,33,40,34,31,98,92,69,29.62,29.53,8,5,9,0.26
2013-2-28,37,33,28,32,24,19,97,71,61,30.03,29.62,20,10,23,0.34
2013-3-1,29,26,24,21,16,12,76,66,54,30.21,30.03,18,9,18,0.00
2013-3-2,30,24,18,16,13,10,76,62,50,30.18,30.12,11,6,12,0.00
2013-3-3,40,24,11,15,10,6,84,56,33,30.15,30.06,9,4,11,0.34
2013-3-4,52,25,11,17,8,4,83,53,24,30.21,30.12,6,2,8,0.00
2013-3-5,41,26,14,22,15,6,84,65,40,30.21,29.91,20,8,22,0.00
2013-3-6,45,32,26,26,22,20,88,70,42,30.27,29.97,17,5,17,0.00
2013-3-7,42,31,21,30,21,11,97,67,40,30.44,30.24,11,3,13,0.00
2013-3-8,48,32,17,28,18,11,87,61,32,30.56,30.41,6,1,6,0.00
2013-3-9,46,36,26,28,23,20,88,61,42,30.47,30.03,17,7,20,0.00
2013-3-10,58,49,39,39,33,26,78,53,41,30.06,29.76,24,7,24,0.00
2013-3-11,54,48,36,49,41,28,98,79,47,29.79,29.47,20,9,24,0.37
2013-3-12,42,34,29,31,24,18,86,68,42,29.94,29.71,21,7,21,0.00
2013-3-13,36,29,23,23,13,8,79,53,32,30.27,29.88,18,6,22,0.00
2013-3-14,45,28,22,18,12,8,71,52,29,30.30,30.12,11,3,13,0.00
2013-3-15,43,35,30,32,26,14,92,70,49,30.12,29.88,10,3,10,0.00
2013-3-16,38,29,24,31,21,14,94,71,46,30.09,29.85,14,6,14,0.00
2013-3-17,44,27,14,20,9,3,87,50,23,30.36,30.06,15,7,15,0.00
2013-3-18,35,28,19,34,20,7,98,71,48,30.27,29.59,21,8,21,0.04
2013-3-19,34,26,22,29,15,7,82,63,43,29.97,29.62,25,8,26,0.00
2013-3-20,34,24,16,16,9,6,66,51,36,30.00,29.88,15,5,15,0.00
2013-3-21,34,25,15,21,14,6,81,64,52,30.00,29.88,17,5,17,0.00
2013-3-22,42,30,24,24,15,10,79,53,39,30.09,29.94,13,6,13,0.00
2013-3-23,40,32,24,23,18,14,77,59,41,30.18,30.06,8,3,10,0.00
2013-3-24,39,30,22,25,20,15,90,69,40,30.12,29.74,21,8,21,5.39
2013-3-25,40,34,30,27,22,18,71,61,49,29.97,29.68,28,13,28,0.00
2013-3-26,50,37,32,30,26,21,82,64,39,30.18,29.94,10,4,10,0.00
2013-3-27,52,38,29,26,22,19,80,55,31,30.24,30.12,15,4,15,0.00
2013-3-28,58,40,29,25,21,16,77,49,25,30.33,30.24,12,4,13,0.00
2013-3-29,60,42,27,24,19,13,70,44,22,30.36,30.24,8,2,9,0.00
2013-3-30,58,43,25,26,20,12,81,43,17,30.30,29.94,16,5,17,0.00
2013-3-31,61,47,39,42,31,24,90,57,30,29.94,29.65,15,6,17,0.00
2013-4-1,39,32,24,29,12,5,86,45,29,30.15,29.71,17,7,20,0.00
2013-4-2,46,31,20,17,11,5,81,45,23,30.30,30.12,14,5,19,0.00
2013-4-3,49,33,18,15,10,6,74,41,21,30.47,30.27,14,4,14,0.00
2013-4-4,60,43,28,21,14,9,51,32,17,30.41,29.94,20,7,20,0.00
2013-4-5,55,41,29,29,17,8,86,42,20,30.24,29.97,20,5,20,0.00
2013-4-6,52,35,29,19,16,9,64,47,27,30.30,29.76,29,10,29,0.00
2013-4-7,57,47,30,45,30,19,78,54,27,30.09,29.59,30,8,30,0.00
2013-4-8,60,42,27,52,36,22,96,80,48,30.09,29.68,25,7,25,0.38
2013-4-9,50,43,39,46,42,38,98,94,71,30.12,29.88,14,6,14,1.44
2013-4-10,40,39,37,40,37,31,98,96,78,30.12,29.91,17,9,17,1.08
2013-4-11,38,36,35,35,33,30,98,91,76,30.09,29.74,23,13,23,0.67
2013-4-12,46,38,33,38,34,28,98,86,58,29.79,29.59,18,8,20,0.33
2013-4-13,44,38,36,39,28,18,98,68,43,30.03,29.79,20,6,22,0.00
2013-4-14,51,41,31,32,27,22,86,59,40,30.18,29.97,17,6,19,0.00
2013-4-15,69,56,41,54,41,30,83,58,44,29.97,29.82,27,10,27,0.00
2013-4-16,64,53,44,56,39,26,98,64,27,30.27,29.85,14,4,14,0.33
2013-4-17,61,47,37,42,32,25,96,60,29,30.39,30.03,22,8,22,10.16
2013-4-18,75,58,44,63,53,40,98,85,60,30.09,29.50,32,11,32,0.66
2013-4-19,60,44,33,59,36,21,98,73,45,29.74,29.32,37,13,37,1.00
2013-4-20,41,34,27,27,17,11,76,50,37,30.50,29.74,17,5,17,0.04
2013-4-21,55,40,25,27,20,16,82,49,26,30.71,30.47,16,6,19,0.00
2013-4-22,68,49,32,30,23,18,71,40,17,30.53,30.18,15,6,15,0.00
2013-4-23,67,55,42,53,38,29,95,55,32,30.21,29.82,30,9,30,0.46
2013-4-24,48,39,34,46,31,20,98,76,40,30.15,29.85,14,6,15,0.54
2013-4-25,56,42,36,36,26,20,82,54,29,30.36,30.09,24,7,24,0.04
2013-4-26,63,49,31,32,27,22,83,46,25,30.50,30.30,22,7,23,0.00
2013-4-27,74,59,43,37,30,22,64,37,16,30.36,30.12,18,7,18,0.00
2013-4-28,64,54,49,52,41,29,94,64,38,30.15,29.85,14,4,15,0.08
2013-4-29,76,62,52,56,50,44,98,70,35,29.94,29.85,115,3,115,0.00
2013-4-30,75,63,56,55,51,48,96,67,39,30.06,29.88,27,10,31,0.33
2013-5-1,85,72,60,53,49,40,71,47,21,30.21,30.00,20,8,20,0.00
2013-5-2,83,70,57,53,46,39,69,45,25,30.24,30.12,25,8,229,0.00
2013-5-3,82,69,58,47,38,24,46,33,18,30.18,30.03,23,8,23,0.00
2013-5-4,76,66,55,42,34,23,53,33,15,30.18,30.12,17,7,19,0.00
2013-5-5,77,62,48,40,31,18,100,35,13,30.18,30.06,19,6,19,0.00
2013-5-6,83,63,40,43,34,24,78,39,15,30.15,30.00,13,4,14,0.00
2013-5-7,84,65,47,49,41,34,73,44,21,30.15,30.00,13,4,14,0.00
2013-5-8,90,68,48,50,40,28,86,42,13,30.09,29.94,11,3,11,0.00
2013-5-9,88,70,54,54,44,32,82,44,15,30.03,29.88,11,3,13,0.00
2013-5-10,67,50,42,54,46,40,98,88,48,29.97,29.79,18,8,18,0.33
2013-5-11,66,49,41,49,41,29,98,78,38,29.97,29.74,23,6,27,0.04
2013-5-12,38,38,38,33,33,33,81,80,80,29.91,29.91,6,4,6,0.00
2013-5-13,61,51,38,33,21,14,82,31,19,30.24,29.91,12,4,15,0.00
2013-5-14,82,58,44,46,32,23,62,38,22,30.15,29.74,19,8,26,0.00
2013-5-15,85,71,56,54,43,33,70,40,19,29.88,29.53,19,6,19,0.00
2013-5-16,86,67,49,43,37,29,71,38,16,30.12,29.82,15,4,15,0.00
2013-5-17,72,57,41,43,38,33,83,51,31,30.24,30.12,10,4,11,0.00
2013-5-18,85,67,52,47,40,34,74,42,18,30.24,30.06,15,6,17,0.00
2013-5-19,94,75,51,58,46,36,70,39,19,30.09,29.82,15,5,15,0.00
2013-5-20,92,76,65,65,59,52,91,60,28,29.88,29.62,28,8,28,0.13
2013-5-21,85,74,66,65,57,50,92,58,32,29.71,29.62,20,7,20,0.04
2013-5-22,81,69,63,65,61,56,95,76,46,29.65,29.47,18,6,18,0.37
2013-5-23,63,51,43,60,49,39,98,90,78,30.18,29.56,22,7,22,0.29
2013-5-24,63,48,38,44,33,26,98,59,31,30.44,30.15,13,6,13,0.00
2013-5-25,71,53,35,41,33,26,95,53,24,30.47,30.30,13,5,13,14.51
2013-5-26,73,56,36,47,32,26,89,47,20,30.44,30.30,11,5,12,0.00
2013-5-27,73,56,42,49,35,22,91,51,20,30.36,30.06,20,8,20,0.00
2013-5-28,76,60,52,69,58,49,98,94,73,30.09,29.76,13,11,13,0.66
2013-5-29,85,77,64,68,61,58,92,60,40,29.82,29.65,15,6,15,0.21
2013-5-30,89,81,69,68,62,55,86,54,35,29.91,29.76,19,9,19,0.25
2013-5-31,82,74,69,65,61,55,84,64,42,29.82,29.68,18,11,18,0.00
2013-6-1,81,72,65,65,60,54,95,68,41,29.71,29.53,11,8,11,0.12
2013-6-2,70,66,63,60,55,46,82,70,44,29.74,29.47,11,11,11,0.21
2013-6-3,73,62,39,43,35,30,89,39,23,30.09,29.97,11,11,11,0.00
2013-6-4,76,62,46,47,38,28,86,47,20,30.21,30.03,11,11,11,0.00
2013-6-5,80,62,52,46,38,29,68,43,20,30.27,30.00,11,8,11,0.00
2013-6-6,71,60,53,49,45,39,76,57,41,30.06,29.82,7,4,7,0.04
2013-6-7,56,51,49,50,47,44,98,86,68,29.91,29.82,7,7,7,0.00
2013-6-10,80,71,64,65,63,60,98,78,54,29.88,29.59,7,4,7,0.87
2013-6-11,87,72,62,71,63,59,98,76,42,29.74,29.65,8,3,8,0.00
2013-6-12,80,69,59,68,62,58,98,80,51,29.76,29.47,8,3,8,0.09
2013-6-13,80,70,62,67,57,48,98,70,36,29.79,29.44,16,5,16,0.66
2013-6-14,82,68,56,59,50,42,98,58,27,30.06,29.82,11,5,344,0.00
2013-6-15,84,69,58,58,53,44,81,58,31,29.97,29.76,10,3,344,0.00
2013-6-16,86,73,64,65,58,45,98,62,29,29.76,29.59,9,1,12,0.25
2013-6-17,91,73,58,60,54,46,95,57,26,29.82,29.68,13,3,13,0.00
2013-6-18,74,64,50,57,43,30,95,50,24,30.12,29.76,17,8,17,0.00
2013-6-19,83,65,43,50,39,33,86,45,19,30.21,30.06,8,5,8,0.00
2013-6-20,89,71,55,50,44,32,84,45,16,30.15,30.09,8,3,8,0.00
2013-6-21,91,75,59,58,52,49,73,47,28,30.18,29.88,14,5,14,0.00
2013-6-22,97,80,68,68,58,49,78,50,29,29.97,29.85,11,4,11,0.00
2013-6-23,93,81,70,71,62,53,98,58,27,29.94,29.85,11,4,11,18.16
2013-6-24,93,80,69,66,62,55,87,57,32,29.94,29.76,10,6,10,0.00
2013-6-25,89,74,67,71,64,60,92,73,42,29.79,29.65,8,3,10,0.46
2013-6-26,93,77,65,71,65,60,98,69,37,29.71,29.59,9,3,9,0.00
2013-6-27,96,74,66,71,65,58,98,77,32,29.62,29.47,14,2,14,0.66
2013-6-28,86,71,65,74,64,57,98,80,41,29.50,29.35,9,3,9,0.29
2013-6-29,78,68,63,64,58,50,98,73,42,29.65,29.41,14,4,14,0.00
2013-6-30,84,69,56,63,53,36,90,60,34,29.91,29.65,18,4,18,0.08
2013-7-1,73,63,54,54,47,42,74,57,35,30.03,29.88,8,5,8,0.00
2013-7-2,82,67,58,57,52,47,84,62,35,30.03,29.88,8,7,10,0.00
2013-7-3,88,72,58,64,58,53,95,66,33,29.97,29.85,10,5,10,0.65
2013-7-4,86,73,64,66,58,46,98,64,28,30.00,29.91,10,4,10,0.00
2013-7-5,94,77,64,67,58,50,90,57,26,29.97,29.88,6,2,6,0.00
2013-7-6,95,79,66,68,62,55,95,60,29,29.94,29.76,10,4,11,0.00
2013-7-7,87,75,69,71,67,62,98,77,45,29.85,29.76,5,3,5,3.18
2013-7-8,86,76,69,70,67,61,93,76,51,29.88,29.79,3,3,3,0.04
2013-7-9,95,83,72,72,67,61,96,65,35,29.79,29.71,4,4,4,0.70
2013-7-10,95,80,64,74,64,46,96,64,31,29.85,29.62,4,4,4,0.00
2013-7-11,87,71,56,60,51,41,93,56,25,29.97,29.85,4,4,4,0.00
2013-7-12,92,71,52,60,53,48,98,59,26,30.09,29.97,4,4,4,0.00
2013-7-13,92,75,57,63,52,40,98,53,17,30.12,30.00,4,4,4,0.00
2013-7-14,97,80,61,68,60,55,94,57,27,30.12,30.00,8,3,8,0.00
2013-7-15,102,83,67,74,67,60,98,63,29,30.18,30.09,10,2,10,0.00
2013-7-16,101,85,73,77,70,63,98,66,32,30.21,30.06,8,2,10,0.00
2013-7-17,102,86,72,72,67,60,87,56,27,30.15,29.94,8,3,9,0.00
2013-7-18,101,85,72,73,67,61,89,58,28,30.06,29.76,12,3,14,0.00
2013-7-19,82,78,76,72,70,69,82,75,67,29.82,29.71,3,3,3,0.00
2013-7-22,92,80,68,64,59,53,77,50,34,29.76,29.59,10,4,12,0.00
2013-7-23,92,71,60,72,58,42,93,66,35,29.85,29.47,15,7,18,0.38
2013-7-24,80,64,50,48,42,37,81,48,25,30.06,29.85,22,5,22,0.00
2013-7-25,86,67,47,58,46,37,98,57,21,30.09,30.00,8,2,12,0.00
2013-7-26,85,70,58,61,53,48,86,58,33,30.06,29.76,11,4,13,0.04
2013-7-27,88,68,56,64,56,44,90,68,32,29.82,29.59,11,3,12,0.17
2013-7-28,73,59,50,53,48,41,93,69,39,29.91,29.79,16,3,18,0.00
2013-7-29,77,64,56,58,52,46,92,67,38,30.09,29.88,10,2,10,0.04
2013-7-30,88,69,48,60,51,46,98,61,26,30.21,30.00,7,2,8,0.04
2013-7-31,69,65,61,66,62,56,98,88,76,30.03,29.76,8,3,8,0.79
2013-8-1,87,69,57,67,58,48,98,73,31,29.82,29.74,10,2,10,0.12
2013-8-2,79,66,56,63,56,52,95,71,42,29.85,29.68,17,4,17,0.12
2013-8-3,85,69,53,63,52,42,98,63,27,30.03,29.76,10,2,12,0.00
2013-8-4,78,64,52,53,49,43,92,61,32,30.18,30.03,10,3,11,0.00
2013-8-5,79,64,54,55,49,42,87,62,32,30.12,29.88,8,2,8,0.00
2013-8-6,82,70,64,67,60,53,94,71,48,29.91,29.71,11,5,11,0.00
2013-8-7,89,75,62,71,65,58,98,76,43,29.74,29.65,14,6,15,0.92
2013-8-8,82,69,58,66,55,44,96,65,30,29.91,29.74,11,4,13,0.00
2013-8-9,88,71,53,61,53,46,98,60,28,29.91,29.82,9,1,10,0.42
2013-8-10,84,69,54,59,51,42,93,57,29,30.09,29.88,10,2,10,0.00
2013-8-11,86,70,57,65,53,45,92,60,26,30.06,29.94,10,2,10,0.00
2013-8-12,73,66,60,66,61,56,98,85,70,29.97,29.71,8,2,8,0.00
2013-8-13,73,62,53,63,46,33,98,60,25,30.12,29.71,13,7,13,0.42
2013-8-14,81,59,45,48,42,38,95,59,22,30.21,30.12,10,8,12,0.42
2013-8-15,79,68,46,53,48,40,95,52,25,30.18,30.00,11,4,12,0.00
2013-8-16,88,68,49,54,47,39,94,54,19,30.18,30.03,6,3,7,0.00
2013-8-17,88,69,49,59,47,35,95,54,16,30.27,30.15,10,3,10,0.00
2013-8-18,89,70,49,61,51,42,96,58,22,30.27,30.00,7,2,7,0.00
2013-8-19,89,77,54,61,51,41,97,45,20,30.09,29.94,5,3,5,0.00
2013-8-20,91,74,60,61,56,51,88,59,28,30.03,29.91,10,5,11,0.00
2013-8-21,91,77,65,62,59,53,88,59,30,30.00,29.82,11,6,13,0.00
2013-8-22,89,76,65,67,60,52,92,60,31,29.94,29.76,3,3,3,6.38
2013-8-23,87,69,52,60,52,39,98,60,20,30.15,29.91,3,3,3,0.00
2013-8-24,91,72,58,59,50,41,83,52,20,30.30,30.15,3,3,3,0.00
2013-8-25,91,75,61,61,57,49,94,57,28,30.21,29.97,3,3,3,0.00
2013-8-26,92,78,69,66,61,57,74,57,36,30.03,29.79,3,3,3,0.00
2013-8-27,87,76,72,73,69,65,96,81,59,29.88,29.74,3,3,3,1.20
2013-8-28,85,77,72,73,70,65,98,82,54,29.88,29.71,3,3,3,0.00
2013-8-29,94,82,67,76,67,62,98,63,38,29.94,29.79,3,3,3,0.00
2013-8-30,88,78,68,69,66,61,98,69,41,29.85,29.56,3,3,3,0.00
2013-8-31,84,78,70,69,63,57,97,61,45,29.76,29.62,3,3,3,0.00
2013-9-1,79,76,69,67,61,58,93,59,52,29.76,29.59,3,3,3,0.29
2013-9-2,77,68,58,67,58,48,98,74,44,29.88,29.59,3,3,3,0.00
2013-9-3,81,66,57,54,49,44,80,57,29,29.97,29.85,3,3,3,29.88
2013-9-4,87,71,55,61,56,51,98,65,34,29.97,29.85,3,3,3,0.00
2013-9-5,74,67,0,61,46,0,74,48,22,30.30,29.97,3,3,3,0.00
2013-9-6,81,62,44,51,44,40,97,58,26,30.33,30.00,3,3,3,0.00
2013-9-7,81,68,59,68,58,47,92,70,45,30.03,29.71,3,3,3,0.04
2013-9-8,70,67,64,68,63,51,98,87,54,29.97,29.76,3,3,3,0.00
2013-9-9,83,68,50,68,59,45,89,75,50,30.03,29.68,3,3,3,0.04
2013-9-10,76,74,71,69,68,67,87,82,74,29.74,29.65,3,3,3,0.00
2013-9-12,81,64,57,66,48,38,89,56,32,29.97,29.76,3,3,3,0.46
2013-9-13,63,56,42,45,37,32,81,51,34,30.15,29.97,3,3,3,0.00
2013-9-14,74,58,42,42,35,30,81,49,22,30.18,30.03,3,3,3,0.00
2013-9-15,63,55,47,53,46,38,95,72,46,30.09,29.97,3,3,3,8.45
2013-9-16,67,54,40,55,44,34,98,73,34,30.33,30.06,3,3,3,0.00
2013-9-17,73,53,33,48,39,32,98,64,32,30.39,30.12,3,3,3,0.00
2013-9-18,81,61,40,54,44,36,95,60,26,30.18,29.88,3,3,3,0.00
2013-9-19,84,70,60,63,58,53,91,69,43,29.94,29.71,3,3,3,0.00
2013-9-20,79,71,66,70,65,60,97,82,57,29.74,29.56,3,3,3,8.66
2013-9-21,78,62,53,65,49,36,96,67,26,29.79,29.53,7,5,7,0.04
2013-9-22,66,54,47,41,35,30,78,50,28,30.03,29.79,7,7,7,0.00
2013-9-23,69,54,39,49,36,34,91,53,29,30.15,30.00,6,5,6,0.00
2013-9-24,74,58,36,52,39,34,98,54,24,30.12,29.88,4,4,4,0.00
2013-9-25,78,54,37,58,41,33,98,69,21,30.00,29.88,7,4,7,26.86
2013-9-26,84,58,40,58,44,38,98,68,21,30.09,29.91,4,4,4,0.00
2013-9-27,84,62,40,58,44,38,98,62,21,30.24,30.03,3,3,3,0.00
2013-9-28,82,64,44,64,50,41,98,65,29,30.15,29.88,3,3,3,0.00
2013-9-29,71,61,50,62,54,48,98,81,62,29.91,29.82,3,3,3,0.17
2013-9-30,76,60,50,60,49,42,98,73,33,29.91,29.82,3,3,3,0.00
2013-10-1,78,63,52,62,55,50,98,78,41,29.91,29.76,3,3,3,0.00
2013-10-2,84,66,48,64,45,23,98,57,11,30.03,29.76,3,3,3,0.00
2013-10-3,85,66,47,60,53,40,84,64,39,30.03,29.74,3,3,3,0.00
2013-10-4,85,71,64,69,62,56,98,76,41,29.88,29.76,3,3,3,0.08
2013-10-5,76,68,63,68,64,62,98,90,69,29.88,29.71,3,3,3,0.25
2013-10-6,72,65,54,68,57,48,98,77,42,29.74,29.47,3,3,3,0.33
2013-10-7,64,52,46,51,39,29,92,61,28,30.00,29.53,3,3,3,0.08
2013-10-8,74,56,39,49,33,26,91,50,18,30.21,30.00,3,3,3,0.00
2013-10-9,77,59,42,51,34,24,85,45,15,30.24,30.09,3,3,3,0.00
2013-10-10,79,56,38,53,32,21,87,50,13,30.21,30.06,3,3,3,0.00
2013-10-11,81,56,35,48,32,22,87,50,12,30.18,30.00,3,3,3,0.00
2013-10-12,82,63,43,56,40,32,90,50,19,30.09,29.88,3,3,3,0.00
2013-10-13,72,59,42,51,35,23,80,45,17,30.36,29.97,3,3,3,0.00
2013-10-14,70,51,37,47,31,20,86,54,17,30.41,30.24,3,3,3,0.00
2013-10-15,70,56,34,58,44,28,91,66,35,30.24,29.74,3,3,3,0.17
2013-10-16,62,55,50,58,43,32,88,67,39,29.82,29.71,3,3,3,0.00
2013-10-17,52,50,48,48,47,45,93,88,79,29.79,29.65,3,3,3,0.33
2013-10-18,67,57,46,58,29,20,98,38,17,29.92,29.74,11,-359,18,0.00
2013-10-19,60,46,39,41,31,-100,87,60,22,29.83,29.65,9,-57,17,0.09
2013-10-20,62,49,40,38,30,22,86,52,24,29.85,29.71,11,-130,13,0.03
2013-10-21,57,50,41,46,32,19,84,50,35,29.80,29.71,10,-9,14,0.13
2013-10-22,57,42,33,22,18,14,54,38,22,29.88,29.80,6,0,12,0.00
2013-10-23,56,40,31,32,21,8,79,50,17,29.97,29.83,9,3,14,0.00
2013-10-24,52,38,30,36,23,16,88,58,28,30.21,29.94,8,2,12,0.00
2013-10-25,55,40,30,34,21,14,89,52,23,30.39,30.09,11,4,19,0.00
2013-10-26,56,43,34,37,21,14,72,42,29,30.09,29.80,15,7,25,0.17
2013-10-27,56,41,32,29,22,17,79,49,25,30.12,29.94,8,0,15,0.00
2013-10-28,51,40,33,32,22,17,73,48,31,30.47,30.06,10,-14,15,0.00
2013-10-29,50,41,37,23,20,16,52,43,30,30.53,30.30,6,-185,8,0.00
2013-10-30,69,49,30,44,29,21,84,50,25,30.30,29.94,8,-43,12,0.00
2013-10-31,62,60,54,60,56,45,100,88,70,29.97,29.03,12,-49,20,1.20
2013-11-1,62,50,46,55,36,27,84,61,41,29.65,29.03,15,-22,30,0.12
2013-11-2,46,43,35,44,34,25,93,73,50,30.15,29.62,12,5,16,0.17
2013-11-3,52,39,29,34,23,18,79,55,29,30.47,30.15,7,3,11,0.00
2013-11-4,56,42,30,26,17,9,71,41,17,30.50,30.33,12,7,18,0.00
2013-11-5,59,52,47,38,31,23,58,44,34,30.36,30.15,10,5,15,0.00
2013-11-6,57,52,41,51,40,28,84,64,36,30.15,29.74,13,8,20,0.45
2013-11-7,50,40,34,33,20,12,73,47,24,30.18,29.97,6,-382,12,0.00
2013-11-8,52,38,28,25,16,8,79,44,19,30.33,30.15,8,-579,10,0.00
2013-11-9,56,47,37,30,22,16,45,37,27,30.21,29.80,15,-364,24,0.00
2013-11-10,52,42,33,24,19,14,59,41,26,30.36,29.94,10,-718,15,0.00
2013-11-11,42,36,27,34,21,10,78,55,41,30.42,30.09,6,-924,6,0.17
2013-11-12,38,28,20,15,8,3,70,45,27,30.62,30.42,0,-999,0,0.00
2013-11-13,44,31,19,14,7,-1,64,40,20,30.65,30.18,7,-766,8,0.00
2013-11-14,53,41,32,14,9,6,34,27,19,30.24,30.00,0,-999,0,0.00
2013-11-15,54,44,39,17,12,10,40,27,18,30.12,30.06,0,-999,0,0.00
2013-11-16,57,48,36,48,31,16,78,54,39,30.18,29.77,0,-999,0,0.00
2013-11-17,63,57,43,54,48,28,91,71,51,29.80,29.12,0,-999,0,0.83
2013-11-18,46,39,34,33,18,11,60,42,37,30.21,29.41,10,-831,15,0.00
2013-11-19,50,36,27,14,11,2,54,37,19,30.47,30.21,6,-544,9,0.00
2013-11-20,48,35,25,23,16,9,79,48,22,30.50,30.30,14,-761,14,0.00
2013-11-21,50,44,38,42,28,17,91,53,38,30.36,30.21,8,-735,10,0.12
2013-11-22,45,38,25,44,29,14,99,74,40,30.45,30.18,10,4,16,0.05
2013-11-23,30,24,16,19,7,-3,75,50,28,30.59,30.36,14,4,20,0.00
2013-11-24,29,19,13,6,0,-4,63,44,25,30.65,30.45,11,4,15,0.00
2013-11-25,33,26,19,21,3,-5,71,38,23,30.47,30.12,18,12,24,0.00
2013-11-26,33,31,27,24,20,14,79,66,55,30.18,30.00,11,-435,15,0.00
2013-11-27,29,22,14,17,3,-5,65,43,26,30.27,30.00,10,-883,12,0.00
2013-11-28,28,22,12,12,7,-1,66,53,33,30.50,30.24,0,-999,0,0.00
2013-11-29,40,27,20,16,11,7,73,53,31,30.77,30.50,8,-324,11,0.00
2013-11-30,47,36,25,17,14,10,57,41,28,30.65,30.12,12,-271,19,0.00
2013-12-1,43,36,32,28,22,17,75,58,41,30.15,30.06,6,-653,9,0.00
2013-12-2,44,33,26,24,17,7,75,54,29,30.12,29.94,4,-702,4,0.00
2013-12-3,36,32,23,32,22,12,84,67,50,30.03,29.88,8,-686,10,0.08
2013-12-4,57,45,35,48,40,31,99,82,60,29.97,29.62,15,-627,23,0.08
2013-12-5,60,43,29,58,27,9,98,53,40,30.21,29.59,11,6,20,3.29
2013-12-6,29,24,18,9,4,-1,47,42,36,30.47,30.21,8,-110,10,0.00
2013-12-7,29,19,8,2,-3,-9,47,38,23,30.71,30.47,6,-154,13,0.00
2013-12-8,26,18,8,19,0,-9,73,46,33,30.71,30.06,10,4,13,0.00
2013-12-9,30,26,17,24,12,-4,84,57,38,30.15,29.91,13,-550,15,0.00
2013-12-10,22,15,5,8,-4,-14,60,44,25,30.24,29.94,18,-290,27,0.00
2013-12-11,28,16,3,8,-3,-18,61,44,30,30.50,30.24,7,4,13,0.00
2013-12-12,21,13,0,7,-7,-21,57,41,33,30.50,30.21,15,8,23,0.00
2013-12-13,32,24,20,12,7,2,61,48,31,30.39,30.21,11,5,18,0.00
2013-12-14,22,20,15,14,8,5,76,61,51,30.39,29.88,14,8,18,0.00
2013-12-15,26,18,9,14,4,-10,79,56,33,30.09,29.85,9,4,17,0.00
2013-12-16,34,14,-2,5,-10,-25,54,33,21,30.27,30.09,7,2,11,0.00
2013-12-17,30,22,14,22,9,-14,78,58,27,30.09,29.88,12,5,15,0.00
2013-12-18,35,27,24,20,11,0,79,52,31,30.18,29.91,13,-14,20,0.00
2013-12-19,46,35,27,28,18,3,87,51,33,30.06,29.88,12,-556,17,0.00
2013-12-20,35,33,32,33,30,28,100,90,78,29.97,29.80,6,-962,10,0.42
2013-12-21,33,32,31,33,30,26,100,93,80,29.94,29.77,5,-915,5,0.04
2013-12-23,24,22,19,17,11,7,75,62,54,30.39,30.36,0,0,0,0.00
2013-12-24,28,14,3,10,-5,-19,68,45,28,30.59,30.39,0,0,0,0.00
2013-12-25,24,19,10,17,4,-12,76,53,35,30.56,30.15,0,0,0,0.00
2013-12-26,32,25,22,20,13,2,81,61,31,30.36,30.09,0,0,0,0.00
2013-12-27,43,31,25,27,19,13,81,63,41,30.39,30.09,0,-252,0,0.09
2013-12-28,50,40,32,25,20,18,75,44,29,30.18,29.91,12,-870,12,0.08
2013-12-29,42,33,18,23,14,-2,78,47,37,30.12,29.77,10,-69,16,0.00
2013-12-30,29,17,12,1,-5,-9,50,37,23,30.33,30.12,9,4,13,0.00
2013-12-31,23,16,11,5,0,-7,62,49,32,30.39,30.12,8,4,15,0.00
2014-1-1,15,11,9,-3,-8,-11,47,41,30,30.47,30.33,14,6,17,0.00
2014-1-2,15,10,1,-2,-8,-15,49,42,37,30.39,30.21,20,12,26,0.00